createdAt,value
2023-05-24T00:04:33.797Z,10.30
2023-05-24T00:09:35.545Z,10.30
2023-05-24T00:14:37.360Z,10.10
2023-05-24T00:19:39.259Z,10.00
2023-05-24T00:24:41.036Z,10.00
2023-05-24T00:29:42.678Z,10.00
2023-05-24T00:34:44.365Z,10.00
2023-05-24T00:39:45.988Z,10.00
2023-05-24T00:44:47.709Z,9.80
2023-05-24T00:49:49.436Z,9.70
2023-05-24T00:54:51.766Z,9.60
2023-05-24T00:59:53.375Z,9.50
2023-05-24T01:04:56.184Z,9.50
2023-05-24T01:10:04.684Z,9.50
2023-05-24T01:15:28.119Z,9.40
2023-05-24T01:20:32.402Z,9.20
2023-05-24T01:25:34.119Z,9.20
2023-05-24T01:30:36.552Z,9.20
2023-05-24T01:35:41.325Z,9.00
2023-05-24T01:40:43.455Z,9.00
2023-05-24T01:45:45.645Z,9.00
2023-05-24T01:51:00.653Z,8.90
2023-05-24T01:56:04.892Z,8.80
2023-05-24T02:01:06.924Z,8.90
2023-05-24T02:06:08.621Z,8.60
2023-05-24T02:11:10.435Z,8.70
2023-05-24T02:16:12.246Z,8.60
2023-05-24T02:21:14.086Z,8.30
2023-05-24T02:26:17.725Z,8.20
2023-05-24T02:31:19.578Z,8.30
2023-05-24T02:36:23.459Z,8.40
2023-05-24T02:41:26.442Z,8.30
2023-05-24T02:46:28.244Z,8.20
2023-05-24T02:51:29.933Z,8.10
2023-05-24T02:56:31.613Z,8.00
2023-05-24T03:01:34.072Z,7.70
2023-05-24T03:31:15.026Z,7.50
2023-05-24T03:36:16.723Z,7.40
2023-05-24T03:41:51.258Z,7.20
2023-05-24T03:46:52.901Z,6.90
2023-05-24T03:51:54.507Z,7.00
2023-05-24T03:57:02.650Z,7.20
2023-05-24T04:02:42.683Z,7.30
2023-05-24T04:07:46.282Z,7.20
2023-05-24T04:12:49.117Z,7.20
2023-05-24T04:18:21.779Z,7.20
2023-05-24T04:30:05.485Z,7.30
2023-05-24T04:35:08.197Z,7.30
2023-05-24T04:40:10.562Z,7.50
2023-05-24T04:45:12.488Z,7.60
2023-05-24T04:50:14.478Z,7.70
2023-05-24T04:55:34.488Z,7.70
2023-05-24T05:00:39.313Z,7.90
2023-05-24T05:11:16.119Z,8.10
2023-05-24T05:16:18.141Z,8.10
2023-05-24T05:21:20.104Z,8.20
2023-05-24T05:26:29.345Z,8.40
2023-05-24T05:31:31.564Z,8.50
2023-05-24T05:36:33.216Z,8.60
2023-05-24T05:41:45.991Z,8.60
2023-05-24T05:46:48.189Z,8.90
2023-05-24T05:57:53.235Z,9.10
2023-05-24T06:02:59.553Z,9.40
2023-05-24T06:08:01.421Z,9.40
2023-05-24T06:19:06.733Z,9.40
2023-05-24T06:30:13.412Z,9.60
2023-05-24T06:35:22.555Z,9.70
2023-05-24T06:40:41.911Z,9.70
2023-05-24T06:46:10.110Z,9.90
2023-05-24T06:51:11.857Z,10.00
2023-05-24T06:56:13.750Z,10.20
2023-05-24T07:01:16.817Z,10.30
2023-05-24T07:06:22.196Z,10.40
2023-05-24T07:11:47.039Z,10.70
2023-05-24T07:16:49.000Z,10.30
2023-05-24T07:21:51.092Z,10.20
2023-05-24T07:26:53.700Z,10.50
2023-05-24T07:31:56.736Z,11.00
2023-05-24T07:37:01.561Z,10.90
2023-05-24T07:42:07.516Z,11.00
2023-05-24T07:47:51.113Z,10.80
2023-05-24T07:53:02.172Z,11.20
2023-05-24T07:58:04.951Z,10.80
2023-05-24T08:09:10.388Z,10.80
2023-05-24T08:14:12.689Z,11.50
2023-05-24T08:19:14.538Z,11.70
2023-05-24T08:24:16.669Z,11.60
2023-05-24T08:29:47.193Z,11.80
2023-05-24T08:34:49.304Z,11.90
2023-05-24T08:39:58.089Z,12.30
2023-05-24T09:08:35.642Z,12.50
2023-05-24T09:13:38.118Z,12.60
2023-05-24T09:18:42.685Z,12.60
2023-05-24T09:23:46.565Z,12.50
2023-05-24T09:28:48.469Z,12.60
2023-05-24T09:33:50.179Z,12.70
2023-05-24T09:39:09.606Z,12.60
2023-05-24T09:44:13.268Z,12.80
2023-05-24T09:49:15.024Z,12.80
2023-05-24T09:54:18.681Z,12.80
2023-05-24T09:59:22.021Z,12.70
2023-05-24T10:04:32.772Z,12.80
2023-05-24T10:09:35.002Z,13.00
2023-05-24T10:14:37.866Z,12.70
2023-05-24T10:19:39.871Z,12.90
2023-05-24T10:24:47.154Z,13.00
2023-05-24T10:29:56.731Z,13.00
2023-05-24T10:35:01.828Z,13.30
2023-05-24T10:40:05.533Z,13.50
2023-05-24T10:45:31.881Z,13.80
2023-05-24T10:50:33.566Z,13.60
2023-05-24T10:55:35.326Z,13.80
2023-05-24T11:06:00.276Z,13.90
2023-05-24T11:11:26.735Z,13.90
2023-05-24T11:16:33.883Z,13.80
2023-05-24T11:21:35.612Z,13.50
2023-05-24T11:26:37.414Z,13.60
2023-05-24T11:31:43.171Z,13.80
2023-05-24T11:36:46.589Z,14.50
2023-05-24T11:41:48.258Z,14.50
2023-05-24T11:46:49.954Z,14.40
2023-05-24T11:51:53.144Z,14.30
2023-05-24T11:56:55.436Z,14.30
2023-05-24T12:02:00.103Z,14.80
2023-05-24T12:07:02.138Z,14.50
2023-05-24T12:12:04.009Z,14.20
2023-05-24T12:17:14.431Z,14.00
2023-05-24T12:22:16.169Z,13.70
2023-05-24T12:27:17.925Z,13.60
2023-05-24T12:32:19.644Z,13.50
2023-05-24T12:37:21.514Z,13.40
2023-05-24T12:42:56.557Z,13.40
2023-05-24T12:48:10.529Z,13.50
2023-05-24T12:53:15.387Z,13.50
2023-05-24T12:58:17.436Z,13.50
2023-05-24T13:03:19.229Z,13.80
2023-05-24T13:08:30.113Z,13.90
2023-05-24T13:13:32.566Z,13.90
2023-05-24T13:24:16.582Z,13.70
2023-05-24T13:35:13.451Z,13.80
2023-05-24T13:40:15.363Z,13.90
2023-05-24T13:45:21.489Z,14.00
2023-05-24T13:50:23.755Z,14.20
2023-05-24T13:55:25.554Z,14.10
2023-05-24T14:00:36.352Z,14.10
2023-05-24T14:06:15.260Z,14.20
2023-05-24T14:11:54.794Z,14.30
2023-05-24T14:17:02.496Z,14.10
2023-05-24T14:22:33.337Z,14.10
2023-05-24T14:27:50.130Z,14.10
2023-05-24T14:33:01.472Z,14.00
2023-05-24T14:38:03.577Z,14.30
2023-05-24T14:43:10.578Z,14.30
2023-05-24T14:48:12.947Z,14.40
2023-05-24T14:53:14.991Z,14.40
2023-05-24T14:58:16.734Z,14.30
2023-05-24T15:03:19.031Z,14.60
2023-05-24T15:08:20.954Z,14.50
2023-05-24T15:13:23.117Z,14.40
2023-05-24T15:18:27.928Z,14.80
2023-05-24T15:23:29.720Z,15.10
2023-05-24T15:28:31.438Z,15.10
2023-05-24T15:33:33.262Z,15.10
2023-05-24T15:38:35.116Z,14.80
2023-05-24T15:43:36.816Z,14.90
2023-05-24T15:48:39.058Z,15.20
2023-05-24T15:53:40.715Z,15.50
2023-05-24T15:58:42.458Z,15.50
2023-05-24T16:03:44.318Z,15.40
2023-05-24T16:08:47.623Z,15.10
2023-05-24T16:13:50.447Z,14.90
2023-05-24T16:18:52.195Z,14.90
2023-05-24T16:23:53.945Z,14.80
2023-05-24T16:28:55.885Z,15.00
2023-05-24T16:33:58.833Z,14.90
2023-05-24T16:39:00.643Z,14.80
2023-05-24T16:44:02.393Z,14.90
2023-05-24T16:49:04.095Z,14.80
2023-05-24T16:54:08.363Z,14.80
2023-05-24T16:59:10.090Z,14.80
2023-05-24T17:04:11.835Z,14.60
2023-05-24T17:09:14.739Z,14.50
2023-05-24T17:14:16.419Z,14.60
2023-05-24T17:19:19.399Z,14.50
2023-05-24T17:24:25.128Z,14.50
2023-05-24T17:29:26.814Z,14.50
2023-05-24T17:34:28.568Z,14.40
2023-05-24T17:39:30.176Z,14.30
2023-05-24T17:44:31.861Z,14.30
2023-05-24T17:49:33.555Z,14.20
2023-05-24T17:54:36.299Z,14.20
2023-05-24T17:59:38.057Z,14.20
2023-05-24T18:04:40.988Z,14.10
2023-05-24T18:09:43.723Z,14.10
2023-05-24T18:14:46.749Z,14.00
2023-05-24T18:19:53.707Z,13.90
2023-05-24T18:24:55.430Z,13.80
2023-05-24T18:29:59.150Z,13.90
2023-05-24T18:35:03.137Z,13.80
2023-05-24T18:40:05.033Z,13.80
2023-05-24T18:45:07.226Z,13.70
2023-05-24T18:50:09.102Z,13.70
2023-05-24T18:55:11.810Z,13.50
2023-05-24T19:00:13.651Z,13.30
2023-05-24T19:05:15.721Z,13.40
2023-05-24T19:10:17.753Z,13.30
2023-05-24T19:15:19.554Z,13.20
2023-05-24T19:20:21.657Z,13.10
2023-05-24T19:25:25.451Z,13.10
2023-05-24T19:30:27.308Z,12.90
2023-05-24T19:35:30.095Z,13.00
2023-05-24T19:40:31.794Z,12.90
2023-05-24T19:45:33.453Z,12.90
2023-05-24T19:50:39.294Z,12.60
2023-05-24T19:55:41.477Z,12.50
2023-05-24T20:00:43.300Z,12.40
2023-05-24T20:05:45.196Z,12.30
2023-05-24T20:10:54.044Z,12.20
2023-05-24T20:15:56.717Z,12.20
2023-05-24T20:20:58.566Z,12.10
2023-05-24T20:26:00.848Z,12.10
2023-05-24T20:31:02.610Z,12.10
2023-05-24T20:36:05.308Z,12.10
2023-05-24T20:41:07.044Z,12.00
2023-05-24T20:46:08.822Z,12.00
2023-05-24T20:51:24.928Z,12.00
2023-05-24T20:56:39.084Z,11.90
2023-05-24T21:01:41.017Z,11.90
2023-05-24T21:06:42.754Z,11.80
2023-05-24T21:11:44.562Z,11.60
2023-05-24T21:16:46.249Z,11.50
2023-05-24T21:21:49.000Z,11.50
2023-05-24T21:26:50.738Z,11.30
2023-05-24T21:31:52.331Z,11.40
2023-05-24T21:36:54.154Z,11.30
2023-05-24T21:41:55.854Z,11.20
2023-05-24T21:46:58.746Z,11.10
2023-05-24T21:52:00.607Z,10.90
2023-05-24T21:57:02.300Z,10.90
2023-05-24T22:02:04.116Z,10.60
2023-05-24T22:07:06.442Z,10.40
2023-05-24T22:12:08.191Z,10.40
2023-05-24T22:17:11.233Z,10.30
2023-05-24T22:22:13.089Z,10.50
2023-05-24T22:27:16.865Z,10.40
2023-05-24T22:32:18.674Z,10.30
2023-05-24T22:37:21.414Z,10.30
2023-05-24T22:42:23.165Z,10.10
2023-05-24T22:47:26.492Z,9.90
2023-05-24T22:52:33.898Z,9.80
2023-05-24T22:57:35.807Z,9.80
2023-05-24T23:02:38.536Z,9.70
2023-05-24T23:07:40.254Z,9.60
2023-05-24T23:12:42.226Z,9.70
2023-05-24T23:17:44.326Z,9.70
2023-05-24T23:22:46.749Z,9.60
2023-05-24T23:27:48.784Z,9.50
2023-05-24T23:32:50.616Z,9.50
2023-05-24T23:37:53.735Z,9.40
2023-05-24T23:42:55.620Z,9.10
2023-05-24T23:47:57.762Z,9.10
2023-05-24T23:52:59.508Z,9.00
2023-05-24T23:58:01.154Z,9.00
